Time;durP1;ratioP1;P1;durP2;ratioP2;P2;SDS_P1;SDS_P2;PMS_P1;PMS_P2;Temp;Humidity;BMP_temperature;BMP_pressure;BME280_temperature;BME280_humidity;BME280_pressure;Samples;Min_cycle;Max_cycle;Signal;HPM_P1;HPM_P2
2022/09/18 00:03:10;;;;;;;4.13;2.40;;;9.40;99.90;;;;;;5031583;28;20465;-68
2022/09/18 00:06:38;;;;;;;4.47;2.30;;;9.40;99.90;;;;;;5031486;28;20045;-68
2022/09/18 00:10:02;;;;;;;3.80;1.40;;;9.50;99.90;;;;;;5031378;28;20037;-68
2022/09/18 00:13:06;;;;;;;4.88;1.38;;;9.50;99.90;;;;;;5031479;28;20042;-68
2022/09/18 00:16:12;;;;;;;3.90;1.70;;;9.60;99.90;;;;;;5031041;28;20049;-69
2022/09/18 00:19:34;;;;;;;2.10;1.35;;;9.60;99.90;;;;;;5031231;28;20381;-69
2022/09/18 00:22:57;;;;;;;3.63;2.60;;;9.60;99.90;;;;;;5030713;28;20050;-68
2022/09/18 00:26:21;;;;;;;8.13;2.70;;;9.60;99.90;;;;;;5030600;28;20025;-68
2022/09/18 00:29:26;;;;;;;5.05;2.72;;;9.70;99.90;;;;;;5031047;28;20041;-68
2022/09/18 00:32:48;;;;;;;3.35;1.70;;;9.60;99.90;;;;;;5030656;28;20034;-67
2022/09/18 00:35:52;;;;;;;5.00;1.60;;;9.30;99.90;;;;;;5030881;28;20362;-68
2022/09/18 00:39:15;;;;;;;3.35;2.13;;;9.20;99.90;;;;;;5030853;28;20029;-67
2022/09/18 00:42:19;;;;;;;7.38;2.20;;;9.10;99.90;;;;;;5030771;28;20026;-68
2022/09/18 00:45:24;;;;;;;6.18;1.92;;;9.00;99.90;;;;;;5030499;28;20029;-67
2022/09/18 00:52:58;;;;;;;8.18;2.28;;;8.90;99.90;;;;;;5033648;28;20046;-67
2022/09/18 00:56:04;;;;;;;4.60;2.08;;;8.80;99.90;;;;;;5030434;28;20037;-68
2022/09/18 00:59:29;;;;;;;4.55;2.22;;;8.90;99.90;;;;;;5030603;28;20472;-68
2022/09/18 01:02:33;;;;;;;4.00;2.08;;;8.90;99.90;;;;;;5030080;28;20033;-68
2022/09/18 01:05:59;;;;;;;3.67;2.17;;;8.80;99.90;;;;;;5030384;28;20037;-68
2022/09/18 01:09:09;;;;;;;4.22;2.30;;;8.90;99.90;;;;;;5030321;28;20370;-68
2022/09/18 01:12:25;;;;;;;5.28;2.28;;;8.90;99.90;;;;;;5029863;28;20041;-68
2022/09/18 01:16:09;;;;;;;4.43;2.45;;;8.70;99.90;;;;;;5029658;28;20026;-68
2022/09/18 01:19:50;;;;;;;7.10;2.47;;;8.60;99.90;;;;;;5029523;28;20042;-68
2022/09/18 01:23:41;;;;;;;7.63;2.67;;;8.60;99.90;;;;;;5028915;28;20464;-67
2022/09/18 01:27:08;;;;;;;5.22;2.90;;;8.60;99.90;;;;;;5029319;28;20037;-67
2022/09/18 01:30:12;;;;;;;6.13;3.05;;;8.50;99.90;;;;;;5028975;28;20037;-67
2022/09/18 01:33:39;;;;;;;5.47;3.30;;;8.50;99.90;;;;;;5028417;28;20025;-67
2022/09/18 01:37:04;;;;;;;7.70;3.78;;;8.50;99.90;;;;;;5028920;28;20037;-67
2022/09/18 01:40:26;;;;;;;5.72;3.10;;;8.60;99.90;;;;;;5028756;28;20033;-67
2022/09/18 01:44:10;;;;;;;8.57;3.30;;;8.60;99.90;;;;;;5028878;28;20045;-67
2022/09/18 01:47:18;;;;;;;9.10;2.92;;;8.60;99.90;;;;;;5030134;28;20480;-67
2022/09/18 01:50:47;;;;;;;5.60;2.92;;;8.60;99.90;;;;;;5029448;28;20033;-67
2022/09/18 01:54:03;;;;;;;6.00;3.00;;;8.70;99.90;;;;;;5029495;28;20042;-67
2022/09/18 01:57:28;;;;;;;6.93;3.55;;;8.60;99.90;;;;;;5029112;28;20033;-68
2022/09/18 02:00:36;;;;;;;7.70;3.33;;;8.60;99.90;;;;;;5028845;28;20030;-67
2022/09/18 02:04:04;;;;;;;4.95;3.00;;;8.70;99.90;;;;;;5028503;28;20509;-67
2022/09/18 02:07:18;;;;;;;10.40;2.97;;;8.60;99.90;;;;;;5029016;28;20038;-67
2022/09/18 02:10:26;;;;;;;5.10;3.10;;;8.50;99.90;;;;;;5028669;28;20404;-68
2022/09/18 02:14:16;;;;;;;9.90;2.60;;;8.40;99.90;;;;;;5029099;28;20472;-67
2022/09/18 02:17:54;;;;;;;5.85;2.50;;;8.40;99.90;;;;;;5030178;28;20050;-68
2022/09/18 02:21:09;;;;;;;6.10;2.50;;;8.50;99.90;;;;;;5028741;28;20038;-67
2022/09/18 02:24:35;;;;;;;9.43;2.80;;;8.50;99.90;;;;;;5028262;28;20045;-67
2022/09/18 02:27:58;;;;;;;5.55;3.08;;;8.50;99.90;;;;;;5028474;28;20037;-67
2022/09/18 02:31:04;;;;;;;5.57;3.45;;;8.50;99.90;;;;;;5028446;28;20034;-67
2022/09/18 02:34:10;;;;;;;5.45;3.58;;;8.50;99.90;;;;;;5028191;28;20374;-67
2022/09/18 02:37:52;;;;;;;11.52;4.10;;;8.50;99.90;;;;;;5028476;28;20063;-67
2022/09/18 02:41:29;;;;;;;6.72;4.13;;;8.50;99.90;;;;;;5029244;28;20064;-67
2022/09/18 02:44:57;;;;;;;5.70;3.80;;;8.50;99.90;;;;;;5028587;28;20045;-68
2022/09/18 02:48:46;;;;;;;4.70;3.72;;;8.50;99.90;;;;;;5031117;28;20049;-67
2022/09/18 02:52:36;;;;;;;9.13;3.60;;;8.40;99.90;;;;;;5031645;28;20033;-67
2022/09/18 02:56:01;;;;;;;4.40;3.30;;;8.40;99.90;;;;;;5032183;28;20033;-67
2022/09/18 02:59:11;;;;;;;6.28;3.40;;;8.40;99.90;;;;;;5020398;28;20381;-67
2022/09/18 03:02:19;;;;;;;7.68;3.53;;;8.40;99.90;;;;;;5031737;28;20025;-67
2022/09/18 03:05:25;;;;;;;8.43;3.40;;;8.40;99.90;;;;;;5031338;28;20033;-66
2022/09/18 03:08:33;;;;;;;8.80;4.15;;;8.40;99.90;;;;;;5031754;28;20029;-67
2022/09/18 03:11:37;;;;;;;12.65;3.55;;;8.40;99.90;;;;;;5031445;28;20500;-67
2022/09/18 03:15:00;;;;;;;9.05;4.07;;;8.40;99.90;;;;;;5032212;28;20037;-67
2022/09/18 03:18:22;;;;;;;9.52;4.07;;;8.30;99.90;;;;;;5031492;28;20483;-67
2022/09/18 03:21:27;;;;;;;14.63;4.28;;;8.10;99.90;;;;;;5031508;28;20029;-67
2022/09/18 03:24:49;;;;;;;130.57;10.15;;;7.90;99.90;;;;;;5030800;28;20424;-67
2022/09/18 03:28:13;;;;;;;389.95;27.40;;;7.80;99.90;;;;;;5030887;28;20048;-67
2022/09/18 03:31:54;;;;;;;27.73;7.07;;;7.80;99.90;;;;;;5031890;28;20036;-67
2022/09/18 03:38:58;;;;;;;155.32;10.05;;;7.60;99.90;;;;;;5031718;28;20048;-67
2022/09/18 03:42:03;;;;;;;32.03;5.78;;;7.40;99.90;;;;;;5030835;28;20113;-67
2022/09/18 03:45:09;;;;;;;10.85;5.35;;;7.30;99.90;;;;;;5031060;28;20040;-67
2022/09/18 03:48:13;;;;;;;7.97;4.50;;;7.30;99.90;;;;;;5031230;28;20064;-68
2022/09/18 03:51:18;;;;;;;9.23;4.18;;;7.40;99.90;;;;;;5030666;28;20041;-67
2022/09/18 03:54:22;;;;;;;7.32;4.68;;;7.40;99.90;;;;;;5030202;28;20042;-68
2022/09/18 03:57:47;;;;;;;8.90;4.18;;;7.40;99.90;;;;;;5030788;28;20473;-67
2022/09/18 04:05:02;;;;;;;6.30;3.58;;;7.40;99.90;;;;;;5042101;28;20037;-67
2022/09/18 04:08:26;;;;;;;10.45;4.28;;;7.30;99.90;;;;;;5032014;28;20153;-67
2022/09/18 04:12:07;;;;;;;6.97;3.22;;;7.40;99.90;;;;;;5031339;28;20404;-67
2022/09/18 04:15:30;;;;;;;8.43;3.35;;;7.50;99.90;;;;;;5029759;28;20354;-67
2022/09/18 04:19:12;;;;;;;5.97;4.03;;;7.70;99.90;;;;;;5031244;28;20041;-67
2022/09/18 04:22:16;;;;;;;5.57;4.55;;;7.70;99.90;;;;;;5030349;28;20786;-67
2022/09/18 04:25:21;;;;;;;8.15;4.05;;;7.80;99.90;;;;;;5029644;28;20041;-67
2022/09/18 04:28:25;;;;;;;7.93;3.83;;;7.80;99.90;;;;;;5031367;28;20049;-67
2022/09/18 04:31:29;;;;;;;21.88;6.30;;;7.60;99.90;;;;;;5029246;28;20037;-67
2022/09/18 04:34:56;;;;;;;8.90;3.63;;;7.30;99.90;;;;;;5030694;28;20048;-67
2022/09/18 04:38:26;;;;;;;7.03;3.25;;;7.30;99.90;;;;;;5030708;28;20041;-67
2022/09/18 04:41:30;;;;;;;5.97;3.25;;;7.30;99.90;;;;;;5030308;28;20516;-68
2022/09/18 04:44:35;;;;;;;3.58;2.13;;;7.30;99.90;;;;;;5030358;28;20049;-68
2022/09/18 04:47:57;;;;;;;5.05;2.30;;;7.30;99.90;;;;;;5030432;28;20053;-68
2022/09/18 04:51:03;;;;;;;4.85;2.10;;;7.40;99.90;;;;;;5030145;28;20037;-67
2022/09/18 04:54:10;;;;;;;4.70;1.92;;;7.40;99.90;;;;;;5030297;28;20045;-68
2022/09/18 04:57:34;;;;;;;6.70;2.85;;;7.40;99.90;;;;;;5030721;28;20041;-68
2022/09/18 05:04:19;;;;;;;2.85;1.40;;;7.50;99.90;;;;;;5029731;28;20033;-68
2022/09/18 05:08:13;;;;;;;3.80;2.17;;;7.50;99.90;;;;;;5030118;28;20033;-68
2022/09/18 05:11:17;;;;;;;7.40;1.40;;;7.80;99.90;;;;;;5029677;28;20033;-68
2022/09/18 05:14:40;;;;;;;2.08;1.13;;;7.80;99.90;;;;;;5030796;28;20030;-68
2022/09/18 05:18:05;;;;;;;4.20;1.73;;;8.00;99.90;;;;;;5030602;28;20033;-68
2022/09/18 05:21:09;;;;;;;4.78;2.05;;;7.80;99.90;;;;;;5030082;28;20037;-68
2022/09/18 05:24:32;;;;;;;7.30;2.08;;;7.60;99.90;;;;;;5029641;28;20045;-68
2022/09/18 05:31:01;;;;;;;147.55;7.50;;;7.10;99.90;;;;;;5029627;28;20036;-67
2022/09/18 05:34:33;;;;;;;64.72;5.05;;;7.00;99.90;;;;;;5029423;28;20396;-67
2022/09/18 05:41:01;;;;;;;37.53;5.10;;;7.00;99.90;;;;;;5029671;28;20040;-67
2022/09/18 05:44:24;;;;;;;47.63;4.28;;;7.00;99.90;;;;;;5030124;28;20049;-67
2022/09/18 05:47:31;;;;;;;34.38;3.58;;;7.30;99.90;;;;;;5030034;28;20499;-68
2022/09/18 05:50:37;;;;;;;59.53;5.20;;;7.60;99.90;;;;;;5030027;28;20048;-68
2022/09/18 05:57:43;;;;;;;10.57;1.95;;;8.50;99.90;;;;;;5030410;28;20040;-67
2022/09/18 06:00:47;;;;;;;66.07;4.03;;;9.30;99.90;;;;;;5029818;28;20044;-67
2022/09/18 06:04:01;;;;;;;17.52;2.67;;;10.00;99.90;;;;;;5029203;28;20547;-68
2022/09/18 06:07:14;;;;;;;17.70;3.80;;;11.40;99.90;;;;;;5029951;28;20044;-68
2022/09/18 06:10:39;;;;;;;12.13;6.28;;;13.20;99.90;;;;;;5029392;28;20037;-68
2022/09/18 06:14:22;;;;;;;47.95;16.60;;;17.80;99.90;;;;;;5029572;28;20283;-68
2022/09/18 06:17:26;;;;;;;65.32;26.10;;;17.70;99.90;;;;;;5029700;28;20045;-68
2022/09/18 06:20:34;;;;;;;17.92;6.72;;;18.70;99.90;;;;;;5030199;28;20049;-68
2022/09/18 06:23:41;;;;;;;6.32;2.72;;;19.90;99.90;;;;;;5032966;28;20408;-68
2022/09/18 06:26:52;;;;;;;4.32;1.77;;;21.00;99.90;;;;;;5033272;28;20400;-68
2022/09/18 06:30:34;;;;;;;2.80;1.63;;;21.50;99.90;;;;;;5033887;28;20053;-68
2022/09/18 06:37:02;;;;;;;2.88;1.10;;;21.90;99.90;;;;;;5032921;28;20443;-67
2022/09/18 06:40:22;;;;;;;4.32;1.20;;;21.40;99.90;;;;;;5033688;28;20040;-67
2022/09/18 06:47:46;;;;;;;3.20;1.10;;;21.60;98.90;;;;;;5033248;28;20048;-67
2022/09/18 06:50:54;;;;;;;4.00;1.45;;;20.90;99.80;;;;;;5032659;28;20044;-67
2022/09/18 06:54:00;;;;;;;4.57;1.25;;;21.10;99.90;;;;;;5032455;28;20049;-68
2022/09/18 06:57:23;;;;;;;4.53;0.90;;;22.20;99.00;;;;;;5033501;28;20048;-67
2022/09/18 07:00:27;;;;;;;2.15;0.90;;;23.20;96.40;;;;;;5032694;28;20053;-68
2022/09/18 07:07:02;;;;;;;14.65;9.35;;;24.50;94.80;;;;;;5032401;28;20048;-67
2022/09/18 07:10:25;;;;;;;24.45;15.30;;;24.50;93.60;;;;;;5032530;28;20057;-67
2022/09/18 07:13:31;;;;;;;15.88;10.70;;;24.60;93.70;;;;;;5031816;28;20040;-68
2022/09/18 07:17:12;;;;;;;9.65;6.43;;;24.60;93.30;;;;;;5032100;28;20052;-67
2022/09/18 07:20:18;;;;;;;8.63;5.65;;;23.70;93.60;;;;;;5032064;28;20045;-68
2022/09/18 07:23:24;;;;;;;8.18;4.72;;;24.80;93.20;;;;;;5031729;28;20112;-68
2022/09/18 07:26:29;;;;;;;3.72;2.13;;;25.80;92.20;;;;;;5032365;28;20052;-68
2022/09/18 07:29:33;;;;;;;3.67;1.40;;;26.20;91.20;;;;;;5032407;28;20056;-69
2022/09/18 07:32:37;;;;;;;3.97;2.33;;;26.10;91.30;;;;;;5031142;28;20045;-68
2022/09/18 07:35:47;;;;;;;4.40;1.60;;;26.70;91.60;;;;;;5032285;28;20104;-68
2022/09/18 07:38:53;;;;;;;2.65;1.20;;;27.40;90.40;;;;;;5031872;28;20103;-69
2022/09/18 07:42:00;;;;;;;2.63;1.13;;;28.40;90.80;;;;;;5031644;28;20048;-68
2022/09/18 07:45:05;;;;;;;2.30;1.10;;;28.50;87.60;;;;;;5031743;28;20048;-68
2022/09/18 07:48:09;;;;;;;2.13;0.77;;;28.10;87.60;;;;;;5031647;28;20056;-68
2022/09/18 07:51:32;;;;;;;1.45;0.88;;;25.40;90.70;;;;;;5032212;28;20064;-68
2022/09/18 07:54:37;;;;;;;3.75;0.90;;;25.50;91.40;;;;;;5030981;28;20045;-68
2022/09/18 07:57:42;;;;;;;2.00;0.93;;;24.70;90.50;;;;;;5031751;28;20048;-68
2022/09/18 08:04:27;;;;;;;2.85;1.10;;;26.80;91.10;;;;;;5031414;28;20054;-68
2022/09/18 08:07:43;;;;;;;3.83;1.05;;;27.70;88.80;;;;;;5031677;28;20072;-68
2022/09/18 08:11:05;;;;;;;1.23;0.80;;;26.30;90.00;;;;;;5032054;28;20515;-68
2022/09/18 08:14:22;;;;;;;2.05;1.00;;;26.40;90.20;;;;;;5031034;28;20044;-68
2022/09/18 08:18:05;;;;;;;2.88;1.15;;;27.00;89.30;;;;;;5031729;28;20499;-68
2022/09/18 08:21:31;;;;;;;1.95;0.88;;;24.00;91.50;;;;;;5031997;28;20048;-68
2022/09/18 08:24:38;;;;;;;1.60;0.70;;;23.40;93.10;;;;;;5030748;28;20326;-68
2022/09/18 08:27:43;;;;;;;2.28;0.70;;;23.90;92.60;;;;;;5031537;28;20416;-68
2022/09/18 08:31:05;;;;;;;4.85;0.80;;;24.60;92.70;;;;;;5031393;28;20044;-68
2022/09/18 08:34:09;;;;;;;2.35;0.77;;;23.70;92.60;;;;;;5030730;28;20044;-68
2022/09/18 08:37:13;;;;;;;1.75;0.82;;;24.10;93.00;;;;;;5030714;28;20040;-68
2022/09/18 08:41:20;;;;;;;3.95;0.80;;;23.60;93.50;;;;;;5048031;28;20187;-68
2022/09/18 08:44:45;;;;;;;4.05;1.10;;;24.80;92.60;;;;;;5030534;28;20040;-68
2022/09/18 08:48:11;;;;;;;1.13;0.70;;;24.40;91.30;;;;;;5030326;28;20060;-68
2022/09/18 08:55:29;;;;;;;1.35;0.98;;;28.40;89.30;;;;;;5029757;28;20412;-68
2022/09/18 08:58:57;;;;;;;3.83;0.70;;;29.10;85.10;;;;;;5031440;28;20052;-68
2022/09/18 09:02:46;;;;;;;2.00;1.13;;;30.90;84.50;;;;;;5030354;28;20053;-69
2022/09/18 09:06:25;;;;;;;3.20;1.58;;;30.20;82.20;;;;;;5030191;28;20049;-68
2022/09/18 09:09:53;;;;;;;3.08;1.73;;;30.60;81.60;;;;;;5030386;28;20064;-68
2022/09/18 09:13:33;;;;;;;5.80;2.95;;;32.20;80.70;;;;;;5029794;28;20064;-69
2022/09/18 09:17:07;;;;;;;4.32;2.90;;;31.70;78.80;;;;;;5030786;28;20040;-68
2022/09/18 09:20:38;;;;;;;5.25;3.20;;;31.60;79.00;;;;;;5030528;28;20413;-69
2022/09/18 09:24:00;;;;;;;4.53;3.10;;;28.40;80.20;;;;;;5020585;28;20040;-68
2022/09/18 09:28:26;;;;;;;4.18;2.42;;;29.60;82.10;;;;;;5047598;28;20051;-69
2022/09/18 09:31:42;;;;;;;7.63;2.38;;;33.00;78.20;;;;;;5042565;28;20496;-68
2022/09/18 09:35:24;;;;;;;2.67;2.08;;;32.50;76.10;;;;;;5018420;28;20048;-68
2022/09/18 09:39:02;;;;;;;4.32;2.40;;;30.70;74.60;;;;;;5030688;28;20511;-68
2022/09/18 09:42:58;;;;;;;2.83;1.92;;;34.10;75.60;;;;;;5030220;28;20044;-68
2022/09/18 09:46:27;;;;;;;5.57;2.30;;;34.80;72.00;;;;;;5018924;28;20036;-67
2022/09/18 09:53:16;;;;;;;3.10;2.15;;;33.70;72.10;;;;;;5029272;28;20052;-68
2022/09/18 09:56:45;;;;;;;4.05;1.98;;;36.20;71.60;;;;;;5031553;28;20062;-68
2022/09/18 10:00:14;;;;;;;2.38;1.80;;;36.20;69.50;;;;;;5034097;28;20045;-68
2022/09/18 10:03:45;;;;;;;4.28;3.67;;;38.80;68.30;;;;;;5033304;28;20388;-66
2022/09/18 10:11:01;;;;;;;3.90;2.80;;;38.60;65.80;;;;;;5033810;28;20049;-66
2022/09/18 10:14:13;;;;;;;5.53;2.78;;;40.30;64.30;;;;;;5033371;28;20056;-66
2022/09/18 10:17:21;;;;;;;3.85;1.90;;;40.80;63.70;;;;;;5033057;28;20048;-66
2022/09/18 10:20:30;;;;;;;1.27;0.85;;;41.40;62.10;;;;;;5033154;28;20048;-66
2022/09/18 10:23:39;;;;;;;0.80;0.70;;;43.00;60.10;;;;;;5033087;28;20060;-66
2022/09/18 10:26:57;;;;;;;1.70;1.00;;;43.90;58.60;;;;;;5033270;28;20078;-65
2022/09/18 10:30:11;;;;;;;1.52;0.90;;;44.40;57.00;;;;;;5033126;28;20052;-66
2022/09/18 10:37:27;;;;;;;4.45;0.80;;;44.10;56.00;;;;;;5032619;28;20531;-67
2022/09/18 10:40:38;;;;;;;2.67;1.05;;;44.50;54.70;;;;;;5032475;28;20404;-66
2022/09/18 10:51:30;;;;;;;1.00;0.82;;;44.90;53.50;;;;;;5032058;28;20542;-67
2022/09/18 10:58:25;;;;;;;0.70;0.50;;;42.50;52.30;;;;;;5031749;28;20067;-66
2022/09/18 11:02:15;;;;;;;1.08;0.60;;;42.50;51.30;;;;;;5031744;28;20507;-66
2022/09/18 11:05:58;;;;;;;1.05;0.50;;;44.00;50.30;;;;;;5032219;28;20085;-67
2022/09/18 11:09:09;;;;;;;1.52;0.75;;;44.80;49.90;;;;;;5030258;28;20041;-67
2022/09/18 11:12:43;;;;;;;1.40;0.85;;;44.90;46.70;;;;;;5031648;28;20032;-67
2022/09/18 11:19:29;;;;;;;2.95;0.80;;;42.90;50.20;;;;;;5031703;28;20053;-66
2022/09/18 11:22:43;;;;;;;1.00;0.70;;;41.90;50.40;;;;;;5031529;28;20052;-66
2022/09/18 11:26:48;;;;;;;2.35;0.40;;;41.20;49.30;;;;;;5031740;28;20402;-66
2022/09/18 11:30:30;;;;;;;2.70;0.68;;;42.00;49.50;;;;;;5031213;28;20060;-67
2022/09/18 11:33:49;;;;;;;0.82;0.50;;;42.50;50.30;;;;;;5030834;28;20053;-66
2022/09/18 11:37:06;;;;;;;1.42;0.60;;;41.80;46.00;;;;;;5019714;28;20036;-66
2022/09/18 11:40:50;;;;;;;0.80;0.70;;;41.60;46.90;;;;;;5031056;28;20048;-66
2022/09/18 11:44:02;;;;;;;2.97;0.80;;;39.40;47.80;;;;;;5030786;28;20060;-69
2022/09/18 11:47:30;;;;;;;1.20;0.70;;;35.40;50.10;;;;;;5030946;28;20056;-68
2022/09/18 11:54:38;;;;;;;1.00;0.60;;;37.50;48.10;;;;;;5031270;28;20048;-67
2022/09/18 11:57:49;;;;;;;1.15;0.73;;;40.00;49.10;;;;;;5019212;28;20057;-67
2022/09/18 12:01:43;;;;;;;0.75;0.57;;;39.30;48.20;;;;;;5031625;28;20048;-68
2022/09/18 12:04:53;;;;;;;3.33;0.80;;;37.40;48.80;;;;;;5030478;28;20052;-68
2022/09/18 12:12:03;;;;;;;1.25;0.75;;;37.90;49.10;;;;;;5030586;28;20047;-69
2022/09/18 12:15:33;;;;;;;1.70;0.60;;;37.10;49.50;;;;;;5029991;28;20060;-67
2022/09/18 12:19:09;;;;;;;3.78;0.80;;;35.70;51.70;;;;;;5029892;28;20080;-68
2022/09/18 12:22:21;;;;;;;1.00;0.70;;;37.30;51.10;;;;;;5029932;28;20523;-68
2022/09/18 12:26:11;;;;;;;0.77;0.60;;;39.70;47.80;;;;;;5029954;28;20049;-68
2022/09/18 12:29:37;;;;;;;0.73;0.50;;;41.20;46.40;;;;;;5029763;28;20060;-69
2022/09/18 12:33:15;;;;;;;6.68;0.90;;;41.80;47.60;;;;;;5031000;28;20049;-69
2022/09/18 12:36:38;;;;;;;0.85;0.80;;;41.80;48.10;;;;;;5031260;28;20097;-68
2022/09/18 12:40:00;;;;;;;1.42;0.60;;;42.20;47.60;;;;;;5029594;28;20048;-68
2022/09/18 12:43:28;;;;;;;1.88;0.60;;;39.60;46.10;;;;;;5030760;28;20045;-68
2022/09/18 12:46:53;;;;;;;;;;;39.80;46.80;;;;;;5030995;28;20049;-68
2022/09/18 12:50:33;;;;;;;0.80;0.50;;;38.30;47.80;;;;;;5030609;28;19913;-68
2022/09/18 12:54:24;;;;;;;0.63;0.50;;;38.10;47.70;;;;;;5030630;28;20053;-69
2022/09/18 12:57:55;;;;;;;2.40;0.70;;;39.50;47.50;;;;;;5031075;28;20048;-68
2022/09/18 13:01:08;;;;;;;1.17;0.70;;;40.30;46.60;;;;;;5029866;28;20499;-69
2022/09/18 13:04:32;;;;;;;2.60;0.60;;;38.90;47.00;;;;;;5029997;28;20392;-69
2022/09/18 13:08:05;;;;;;;0.98;0.57;;;39.30;47.00;;;;;;5030261;28;20037;-69
2022/09/18 13:11:23;;;;;;;3.33;0.70;;;39.60;46.80;;;;;;5030061;28;20037;-68
2022/09/18 13:14:40;;;;;;;1.27;0.50;;;40.30;46.80;;;;;;5029770;28;20040;-68
2022/09/18 13:17:51;;;;;;;1.40;0.60;;;40.80;46.00;;;;;;5030240;28;20044;-68
2022/09/18 13:21:15;;;;;;;2.38;0.82;;;40.90;46.90;;;;;;5029955;28;20048;-69
2022/09/18 13:24:24;;;;;;;0.63;0.50;;;40.70;46.70;;;;;;5017617;28;20068;-69
2022/09/18 13:27:30;;;;;;;2.75;0.63;;;40.50;47.80;;;;;;5030298;28;20044;-69
2022/09/18 13:30:35;;;;;;;1.63;0.50;;;40.60;47.30;;;;;;5028828;28;20056;-69
2022/09/18 13:33:52;;;;;;;1.50;0.70;;;40.10;45.20;;;;;;5029524;28;20048;-69
2022/09/18 13:37:12;;;;;;;3.25;0.70;;;39.40;47.50;;;;;;5029027;28;20511;-68
2022/09/18 13:40:58;;;;;;;2.38;0.68;;;38.90;47.70;;;;;;5029971;28;20044;-68
2022/09/18 13:44:27;;;;;;;0.60;0.40;;;37.70;47.90;;;;;;5029683;28;20061;-68
2022/09/18 13:51:04;;;;;;;0.82;0.52;;;36.10;47.20;;;;;;5030146;28;20041;-69
2022/09/18 13:58:30;;;;;;;2.10;0.60;;;37.00;48.10;;;;;;5029504;28;20040;-68
2022/09/18 14:02:01;;;;;;;3.28;0.70;;;36.80;47.00;;;;;;5029460;28;20052;-68
2022/09/18 14:05:42;;;;;;;1.02;0.55;;;35.90;47.10;;;;;;5017314;28;20044;-66
2022/09/18 14:09:24;;;;;;;1.77;0.70;;;30.40;49.20;;;;;;5029458;28;20596;-68
2022/09/18 14:12:34;;;;;;;1.38;0.85;;;28.20;52.10;;;;;;5029374;28;20060;-68
2022/09/18 14:15:38;;;;;;;1.73;0.70;;;26.40;52.40;;;;;;5029836;28;20056;-67
2022/09/18 14:19:03;;;;;;;1.55;0.70;;;26.80;54.20;;;;;;5029591;28;20060;-68
2022/09/18 14:22:27;;;;;;;1.52;0.73;;;26.90;54.20;;;;;;5029751;28;20052;-68
2022/09/18 14:25:45;;;;;;;0.90;0.60;;;29.00;53.90;;;;;;5029398;28;20048;-68
2022/09/18 14:29:09;;;;;;;2.05;0.57;;;29.80;52.50;;;;;;5029488;28;20040;-69
2022/09/18 14:35:45;;;;;;;1.30;0.88;;;30.80;52.70;;;;;;5029374;28;20373;-68
2022/09/18 14:38:48;;;;;;;3.90;1.00;;;30.60;53.30;;;;;;5029166;28;20040;-68
2022/09/18 14:41:57;;;;;;;4.60;1.30;;;30.60;51.30;;;;;;5030105;28;20044;-68
2022/09/18 14:45:11;;;;;;;1.77;0.60;;;30.60;52.20;;;;;;5032551;28;20044;-68
2022/09/18 14:48:41;;;;;;;1.92;1.00;;;30.60;52.20;;;;;;5033185;28;20056;-67
2022/09/18 14:51:45;;;;;;;3.70;1.10;;;30.40;52.70;;;;;;5032963;28;20052;-69
2022/09/18 14:54:52;;;;;;;1.25;0.77;;;30.10;52.80;;;;;;5031851;28;20060;-69
2022/09/18 14:58:00;;;;;;;2.97;1.00;;;29.80;53.60;;;;;;5032464;28;20048;-68
2022/09/18 15:01:09;;;;;;;2.92;0.80;;;29.20;54.30;;;;;;5032647;28;20036;-67
2022/09/18 15:04:20;;;;;;;4.72;0.80;;;28.90;54.10;;;;;;5032394;28;20040;-68
2022/09/18 15:07:24;;;;;;;4.57;1.20;;;28.70;54.70;;;;;;5033460;28;20048;-68
2022/09/18 15:14:28;;;;;;;3.08;1.30;;;27.70;56.50;;;;;;5038456;28;20476;-68
2022/09/18 15:17:32;;;;;;;1.70;1.00;;;27.50;57.60;;;;;;5032591;28;20386;-68
2022/09/18 15:24:01;;;;;;;1.90;1.15;;;27.20;57.80;;;;;;5032155;28;20540;-68
2022/09/18 15:27:24;;;;;;;2.95;1.05;;;27.10;58.60;;;;;;5032236;28;20040;-68
2022/09/18 15:31:08;;;;;;;2.42;1.05;;;27.10;58.10;;;;;;5031644;28;20041;-68
2022/09/18 15:34:36;;;;;;;1.85;1.05;;;26.60;59.50;;;;;;5031793;28;20036;-68
2022/09/18 15:37:47;;;;;;;4.38;1.00;;;26.80;59.90;;;;;;5031774;28;20045;-68
2022/09/18 15:40:52;;;;;;;1.45;0.90;;;26.50;59.60;;;;;;5031814;28;20049;-68
2022/09/18 15:43:56;;;;;;;1.95;0.70;;;26.40;58.10;;;;;;5031859;28;20052;-68
2022/09/18 15:47:35;;;;;;;1.65;0.80;;;26.30;58.80;;;;;;5032235;28;20041;-68
2022/09/18 15:50:40;;;;;;;2.35;1.00;;;26.00;59.40;;;;;;5036548;28;20053;-67
2022/09/18 15:54:12;;;;;;;1.40;1.02;;;25.90;60.00;;;;;;5030755;28;20053;-68
2022/09/18 15:57:16;;;;;;;2.28;0.90;;;25.70;60.60;;;;;;5031629;28;20392;-68
2022/09/18 16:00:39;;;;;;;1.92;0.90;;;25.60;60.30;;;;;;5031757;28;20052;-68
2022/09/18 16:04:01;;;;;;;3.83;0.98;;;25.50;60.10;;;;;;5030813;28;20052;-68
2022/09/18 16:07:25;;;;;;;2.10;1.00;;;25.30;61.00;;;;;;5031291;28;20040;-68
2022/09/18 16:10:50;;;;;;;2.90;0.80;;;25.10;61.20;;;;;;5031532;28;20515;-69
2022/09/18 16:13:55;;;;;;;2.00;0.90;;;24.90;61.80;;;;;;5030923;28;20060;-69
2022/09/18 16:17:28;;;;;;;4.57;0.88;;;24.70;61.60;;;;;;5030594;28;20400;-68
2022/09/18 16:20:50;;;;;;;4.78;1.23;;;24.50;62.20;;;;;;5031764;28;20049;-69
2022/09/18 16:24:17;;;;;;;2.20;0.80;;;24.30;60.40;;;;;;5030686;28;20048;-69
2022/09/18 16:27:22;;;;;;;1.60;1.00;;;24.30;62.10;;;;;;5030864;28;20384;-68
2022/09/18 16:30:27;;;;;;;1.30;0.77;;;24.10;62.20;;;;;;5030646;28;20043;-68
2022/09/18 16:34:39;;;;;;;1.50;0.80;;;23.90;62.50;;;;;;5036200;28;20057;-68
2022/09/18 16:37:42;;;;;;;6.47;1.42;;;23.80;63.40;;;;;;5030899;28;20048;-68
2022/09/18 16:40:46;;;;;;;3.60;1.63;;;23.60;65.30;;;;;;5031160;28;20044;-68
2022/09/18 16:43:51;;;;;;;2.58;1.58;;;23.50;65.00;;;;;;5029906;28;20045;-68
2022/09/18 16:46:58;;;;;;;4.18;1.60;;;23.30;64.80;;;;;;5031794;28;20044;-68
2022/09/18 16:50:03;;;;;;;4.20;1.45;;;23.20;64.80;;;;;;5031580;28;20040;-68
2022/09/18 16:56:56;;;;;;;2.33;1.55;;;22.90;66.40;;;;;;5031664;28;20064;-68
2022/09/18 17:00:06;;;;;;;2.33;1.65;;;22.70;68.40;;;;;;5031283;28;20048;-68
2022/09/18 17:03:10;;;;;;;3.75;1.85;;;22.40;68.10;;;;;;5031205;28;20044;-68
2022/09/18 17:06:33;;;;;;;4.57;1.80;;;22.20;68.10;;;;;;5030341;28;20524;-68
2022/09/18 17:09:37;;;;;;;2.45;1.38;;;22.00;68.80;;;;;;5030818;28;20192;-68
2022/09/18 17:13:00;;;;;;;3.42;1.95;;;21.80;67.90;;;;;;5031395;28;20033;-69
2022/09/18 17:16:05;;;;;;;5.63;1.90;;;21.60;69.30;;;;;;5031089;28;20511;-68
2022/09/18 17:19:09;;;;;;;3.50;1.60;;;21.50;70.20;;;;;;5031061;28;20056;-68
2022/09/18 17:25:55;;;;;;;18.30;2.13;;;20.90;71.70;;;;;;5038970;28;20507;-69
2022/09/18 17:28:59;;;;;;;;;;;20.60;73.70;;;;;;5031895;28;20056;-68
2022/09/18 17:32:40;;;;;;;3.22;1.38;;;20.40;73.00;;;;;;5030383;28;19932;-68
2022/09/18 17:39:06;;;;;;;2.72;1.30;;;20.10;74.10;;;;;;5031034;28;20044;-68
2022/09/18 17:42:29;;;;;;;5.18;1.52;;;19.90;74.70;;;;;;5030682;28;20048;-68
2022/09/18 17:45:33;;;;;;;4.53;1.70;;;19.60;75.60;;;;;;5029566;28;20044;-68
2022/09/18 17:52:00;;;;;;;3.08;1.20;;;19.20;76.80;;;;;;5030343;28;20387;-68
2022/09/18 17:55:27;;;;;;;5.80;1.63;;;19.10;76.90;;;;;;5030378;28;20053;-68
2022/09/18 17:58:51;;;;;;;5.72;1.50;;;19.00;77.00;;;;;;5030653;28;20044;-68
2022/09/18 18:01:56;;;;;;;3.58;1.88;;;18.90;77.50;;;;;;5030635;28;20044;-67
2022/09/18 18:05:01;;;;;;;2.65;1.77;;;18.80;77.60;;;;;;5030675;28;20054;-68
2022/09/18 18:08:27;;;;;;;2.90;1.55;;;18.80;77.70;;;;;;5030302;28;20045;-68
2022/09/18 18:11:31;;;;;;;5.20;1.90;;;18.70;78.10;;;;;;5030220;28;20040;-68
2022/09/18 18:14:35;;;;;;;2.67;1.27;;;18.60;78.20;;;;;;5030457;28;20053;-67
2022/09/18 18:17:58;;;;;;;3.30;1.60;;;18.50;78.50;;;;;;5032576;28;20033;-69
2022/09/18 18:21:04;;;;;;;2.30;1.20;;;18.40;78.60;;;;;;5033936;28;20041;-69
2022/09/18 18:24:13;;;;;;;2.97;1.20;;;18.30;79.20;;;;;;5033722;28;20499;-69
2022/09/18 18:27:19;;;;;;;2.63;1.08;;;18.20;79.10;;;;;;5034247;28;20049;-69
2022/09/18 18:30:44;;;;;;;1.77;1.00;;;18.20;79.10;;;;;;5033912;28;20044;-69
2022/09/18 18:33:48;;;;;;;4.70;1.30;;;18.10;79.50;;;;;;5033623;28;20063;-69
2022/09/18 18:36:52;;;;;;;3.95;1.38;;;18.10;79.30;;;;;;5034323;28;20048;-68
2022/09/18 18:39:56;;;;;;;4.63;1.40;;;18.10;79.50;;;;;;5034124;28;20064;-68
2022/09/18 18:43:19;;;;;;;5.13;1.00;;;18.00;79.60;;;;;;5032065;28;20044;-68
2022/09/18 18:46:44;;;;;;;2.35;1.10;;;17.90;79.90;;;;;;5034136;28;20045;-69
2022/09/18 18:50:11;;;;;;;4.07;1.15;;;17.90;80.10;;;;;;5033547;28;20052;-69
2022/09/18 18:53:16;;;;;;;2.05;1.10;;;17.80;80.40;;;;;;5033677;28;20393;-69
2022/09/18 18:56:20;;;;;;;2.70;0.90;;;17.70;80.90;;;;;;5033914;28;20483;-69
2022/09/18 19:03:05;;;;;;;6.03;0.80;;;17.60;81.80;;;;;;5033587;28;20040;-69
2022/09/18 19:06:28;;;;;;;1.60;0.70;;;17.50;81.70;;;;;;5033658;28;20052;-68
2022/09/18 19:09:51;;;;;;;2.50;1.20;;;17.50;82.10;;;;;;5033107;28;20103;-68
2022/09/18 19:13:51;;;;;;;2.05;1.02;;;17.40;82.70;;;;;;5032820;28;20056;-69
2022/09/18 19:16:56;;;;;;;1.42;0.63;;;17.40;83.10;;;;;;5033520;28;20053;-68